createdAt,value
2022-07-29T00:00:23.004Z,15.21
2022-07-29T00:02:49.552Z,15.17
2022-07-29T00:05:16.175Z,15.09
2022-07-29T00:07:42.715Z,15.08
2022-07-29T00:10:09.512Z,15.06
2022-07-29T00:12:36.775Z,15.08
2022-07-29T00:15:04.596Z,15.08
2022-07-29T00:17:31.078Z,15.03
2022-07-29T00:19:57.487Z,15.03
2022-07-29T00:22:24.031Z,14.95
2022-07-29T00:24:50.727Z,14.88
2022-07-29T00:27:17.820Z,14.83
2022-07-29T00:29:44.281Z,14.84
2022-07-29T00:32:10.749Z,14.90
2022-07-29T00:34:55.979Z,14.90
2022-07-29T00:37:22.610Z,14.86
2022-07-29T00:39:49.065Z,14.75
2022-07-29T00:42:15.528Z,14.65
2022-07-29T00:44:42.827Z,14.63
2022-07-29T00:47:11.269Z,14.62
2022-07-29T00:49:40.237Z,14.67
2022-07-29T00:52:07.632Z,14.63
2022-07-29T00:54:37.448Z,14.62
2022-07-29T00:57:10.790Z,14.55
2022-07-29T00:59:37.283Z,14.53
2022-07-29T01:02:04.399Z,14.56
2022-07-29T01:04:32.449Z,14.57
2022-07-29T01:06:59.581Z,14.59
2022-07-29T01:09:43.134Z,14.62
2022-07-29T01:12:15.953Z,14.60
2022-07-29T01:14:43.419Z,14.64
2022-07-29T01:17:26.984Z,14.61
2022-07-29T01:20:15.278Z,14.63
2022-07-29T01:23:08.416Z,14.62
2022-07-29T01:25:59.667Z,14.57
2022-07-29T01:28:39.908Z,14.43
2022-07-29T01:31:23.782Z,14.38
2022-07-29T01:33:58.769Z,14.32
2022-07-29T01:36:44.192Z,14.31
2022-07-29T01:39:20.252Z,14.26
2022-07-29T01:42:08.356Z,14.15
2022-07-29T01:44:40.782Z,14.11
2022-07-29T01:47:13.291Z,14.13
2022-07-29T01:49:46.985Z,14.12
2022-07-29T01:52:35.868Z,14.13
2022-07-29T01:55:08.584Z,14.12
2022-07-29T01:57:38.400Z,14.15
2022-07-29T02:00:06.346Z,14.11
2022-07-29T02:02:35.710Z,14.03
2022-07-29T02:05:03.837Z,13.95
2022-07-29T02:07:33.242Z,13.91
2022-07-29T02:10:03.442Z,13.90
2022-07-29T02:12:31.943Z,13.92
2022-07-29T02:15:01.811Z,13.97
2022-07-29T02:17:41.954Z,13.97
2022-07-29T02:20:10.017Z,14.00
2022-07-29T02:22:38.861Z,13.99
2022-07-29T02:25:07.805Z,14.02
2022-07-29T02:27:42.462Z,14.01
2022-07-29T02:30:11.071Z,13.98
2022-07-29T02:32:40.260Z,13.96
2022-07-29T02:35:09.428Z,13.90
2022-07-29T02:37:37.854Z,13.87
2022-07-29T02:40:07.112Z,13.84
2022-07-29T02:42:34.700Z,13.85
2022-07-29T02:45:07.192Z,13.87
2022-07-29T02:47:41.336Z,13.93
2022-07-29T02:50:17.293Z,14.00
2022-07-29T02:53:04.316Z,14.06
2022-07-29T02:55:34.360Z,14.07
2022-07-29T02:58:03.449Z,14.05
2022-07-29T03:00:32.286Z,14.04
2022-07-29T03:03:04.300Z,14.04
2022-07-29T03:05:32.094Z,14.05
2022-07-29T03:08:02.466Z,14.00
2022-07-29T03:10:29.321Z,14.01
2022-07-29T03:12:57.375Z,13.95
2022-07-29T03:15:26.601Z,13.93
2022-07-29T03:17:53.773Z,13.92
2022-07-29T03:20:20.449Z,13.95
2022-07-29T03:22:49.782Z,13.95
2022-07-29T03:25:17.511Z,13.94
2022-07-29T03:27:44.983Z,13.97
2022-07-29T03:30:18.442Z,14.00
2022-07-29T03:32:48.456Z,14.04
2022-07-29T03:35:17.402Z,14.05
2022-07-29T03:37:45.061Z,14.06
2022-07-29T03:40:14.996Z,14.05
2022-07-29T03:42:43.422Z,14.04
2022-07-29T03:45:13.675Z,14.04
2022-07-29T03:47:50.880Z,14.02
2022-07-29T03:50:20.456Z,14.01
2022-07-29T03:52:47.908Z,13.97
2022-07-29T03:55:15.685Z,13.96
2022-07-29T03:57:43.613Z,13.97
2022-07-29T04:00:10.965Z,13.98
2022-07-29T04:02:39.306Z,13.97
2022-07-29T04:05:06.113Z,13.99
2022-07-29T04:07:32.553Z,13.99
2022-07-29T04:09:59.014Z,14.01
2022-07-29T04:12:25.816Z,13.98
2022-07-29T04:14:52.320Z,13.98
2022-07-29T04:17:18.788Z,13.97
2022-07-29T04:19:45.249Z,13.97
2022-07-29T04:22:14.593Z,13.99
2022-07-29T04:24:44.315Z,13.98
2022-07-29T04:27:12.832Z,13.99
2022-07-29T04:29:56.902Z,14.03
2022-07-29T04:32:24.834Z,14.01
2022-07-29T04:34:51.349Z,13.97
2022-07-29T04:37:18.087Z,13.98
2022-07-29T04:39:44.622Z,13.99
2022-07-29T04:42:11.161Z,13.99
2022-07-29T04:44:39.607Z,14.01
2022-07-29T04:47:08.960Z,14.04
2022-07-29T04:49:35.579Z,13.99
2022-07-29T04:52:02.056Z,13.96
2022-07-29T04:54:31.603Z,13.98
2022-07-29T04:56:58.049Z,13.96
2022-07-29T04:59:25.830Z,13.96
2022-07-29T05:01:52.376Z,13.99
2022-07-29T05:04:19.462Z,14.05
2022-07-29T05:06:46.423Z,14.07
2022-07-29T05:09:12.873Z,14.05
2022-07-29T05:11:39.291Z,14.07
2022-07-29T05:14:09.135Z,14.07
2022-07-29T05:16:35.910Z,14.08
2022-07-29T05:19:02.407Z,14.10
2022-07-29T05:21:28.882Z,14.12
2022-07-29T05:23:55.331Z,14.12
2022-07-29T05:26:21.780Z,14.14
2022-07-29T05:28:48.200Z,14.14
2022-07-29T05:31:15.659Z,14.19
2022-07-29T05:33:43.133Z,14.21
2022-07-29T05:36:09.681Z,14.24
2022-07-29T05:38:37.018Z,14.33
2022-07-29T05:41:04.121Z,14.39
2022-07-29T05:43:30.874Z,14.45
2022-07-29T05:45:57.940Z,14.54
2022-07-29T05:48:24.871Z,14.65
2022-07-29T05:50:51.278Z,14.75
2022-07-29T05:53:19.833Z,14.90
2022-07-29T05:55:47.507Z,14.99
2022-07-29T05:58:14.015Z,15.09
2022-07-29T06:00:40.845Z,15.25
2022-07-29T06:03:07.258Z,15.61
2022-07-29T06:05:33.803Z,16.04
2022-07-29T06:08:00.394Z,17.08
2022-07-29T06:10:27.861Z,17.85
2022-07-29T06:12:54.508Z,18.51
2022-07-29T06:15:20.968Z,18.70
2022-07-29T06:18:00.617Z,17.63
2022-07-29T06:20:32.387Z,17.31
2022-07-29T06:22:59.857Z,17.03
2022-07-29T06:25:26.770Z,17.59
2022-07-29T06:27:53.305Z,17.30
2022-07-29T06:30:19.906Z,17.09
2022-07-29T06:32:46.294Z,17.07
2022-07-29T06:35:37.525Z,16.92
2022-07-29T06:37:59.762Z,16.74
2022-07-29T06:40:45.590Z,16.67
2022-07-29T06:43:12.044Z,16.60
2022-07-29T06:45:42.349Z,16.77
2022-07-29T06:48:09.270Z,17.48
2022-07-29T06:50:35.809Z,18.55
2022-07-29T06:53:02.212Z,19.64
2022-07-29T06:55:28.677Z,20.14
2022-07-29T06:57:55.214Z,19.69
2022-07-29T07:00:21.600Z,19.67
2022-07-29T07:02:48.238Z,19.42
2022-07-29T07:05:17.100Z,20.04
2022-07-29T07:07:43.523Z,20.64
2022-07-29T07:10:10.139Z,21.07
2022-07-29T07:12:36.549Z,20.63
2022-07-29T07:15:04.105Z,20.51
2022-07-29T07:17:30.582Z,21.41
2022-07-29T07:19:56.998Z,22.01
2022-07-29T07:22:27.306Z,22.74
2022-07-29T07:24:53.753Z,23.05
2022-07-29T07:27:20.140Z,22.80
2022-07-29T07:29:46.526Z,23.84
2022-07-29T07:32:14.423Z,23.60
2022-07-29T07:34:41.001Z,23.76
2022-07-29T07:37:07.385Z,24.19
2022-07-29T07:39:34.216Z,23.91
2022-07-29T07:42:00.591Z,23.45
2022-07-29T07:44:27.106Z,23.48
2022-07-29T07:46:54.649Z,23.94
2022-07-29T07:49:21.549Z,23.64
2022-07-29T07:51:50.621Z,23.31
2022-07-29T07:54:18.265Z,23.32
2022-07-29T07:56:45.233Z,24.14
2022-07-29T07:59:11.601Z,23.87
2022-07-29T08:01:55.300Z,23.08
2022-07-29T08:04:27.749Z,22.41
2022-07-29T08:06:55.983Z,22.15
2022-07-29T08:09:29.345Z,22.68
2022-07-29T08:11:57.491Z,22.75
2022-07-29T08:14:24.156Z,22.42
2022-07-29T08:16:50.698Z,22.09
2022-07-29T08:19:17.274Z,22.50
2022-07-29T08:21:43.665Z,22.65
2022-07-29T08:24:28.628Z,22.28
2022-07-29T08:26:55.086Z,22.35
2022-07-29T08:29:21.475Z,22.27
2022-07-29T08:31:47.907Z,21.83
2022-07-29T08:34:15.203Z,21.86
2022-07-29T08:36:41.592Z,22.16
2022-07-29T08:39:08.158Z,22.51
2022-07-29T08:41:34.776Z,22.62
2022-07-29T08:44:01.172Z,22.67
2022-07-29T08:46:27.619Z,23.48
2022-07-29T08:48:55.337Z,24.10
2022-07-29T08:51:23.021Z,24.38
2022-07-29T08:53:51.068Z,24.42
2022-07-29T08:56:19.175Z,24.40
2022-07-29T08:58:52.288Z,24.26
2022-07-29T09:01:23.933Z,23.71
2022-07-29T09:04:05.461Z,23.28
2022-07-29T09:06:35.275Z,23.06
2022-07-29T09:09:02.213Z,22.93
2022-07-29T09:11:29.921Z,23.14
2022-07-29T09:13:56.381Z,23.48
2022-07-29T09:16:50.930Z,23.40
2022-07-29T09:19:21.076Z,23.35
2022-07-29T09:21:59.470Z,23.66
2022-07-29T09:24:46.101Z,23.43
2022-07-29T09:27:18.467Z,23.20
2022-07-29T09:29:45.042Z,22.68
2022-07-29T09:32:11.829Z,23.09
2022-07-29T09:34:38.394Z,23.65
2022-07-29T09:37:05.936Z,23.83
2022-07-29T09:39:38.774Z,24.01
2022-07-29T09:42:06.784Z,24.44
2022-07-29T09:44:50.101Z,24.49
2022-07-29T09:47:17.987Z,23.92
2022-07-29T09:50:01.367Z,23.12
2022-07-29T09:52:28.916Z,22.95
2022-07-29T09:55:09.309Z,23.06
2022-07-29T09:57:35.938Z,22.68
2022-07-29T10:00:10.358Z,22.36
2022-07-29T10:02:38.993Z,22.23
2022-07-29T10:05:07.853Z,22.33
2022-07-29T10:07:57.150Z,22.34
2022-07-29T10:10:32.739Z,22.23
2022-07-29T10:13:06.941Z,22.12
2022-07-29T10:15:39.446Z,22.10
2022-07-29T10:18:07.039Z,22.61
2022-07-29T10:20:33.689Z,22.98
2022-07-29T10:23:00.244Z,23.49
2022-07-29T10:25:27.748Z,23.71
2022-07-29T10:27:55.815Z,23.73
2022-07-29T10:30:24.185Z,23.39
2022-07-29T10:33:22.672Z,23.34
2022-07-29T10:36:14.304Z,23.67
2022-07-29T10:38:48.722Z,24.22
2022-07-29T10:41:44.406Z,24.50
2022-07-29T10:44:19.416Z,24.45
2022-07-29T10:46:49.889Z,24.34
2022-07-29T10:49:24.820Z,23.89
2022-07-29T10:51:56.110Z,23.89
2022-07-29T10:54:43.651Z,24.25
2022-07-29T10:57:16.623Z,24.58
2022-07-29T10:59:48.287Z,24.70
2022-07-29T11:02:46.463Z,24.92
2022-07-29T11:05:15.754Z,24.87
2022-07-29T11:08:20.279Z,25.26
2022-07-29T11:10:51.377Z,24.82
2022-07-29T11:13:47.314Z,24.97
2022-07-29T11:16:16.408Z,24.72
2022-07-29T11:19:11.185Z,24.44
2022-07-29T11:21:53.799Z,24.27
2022-07-29T11:24:30.204Z,24.76
2022-07-29T11:27:13.207Z,24.96
2022-07-29T11:29:58.482Z,24.70
2022-07-29T11:32:36.831Z,24.57
2022-07-29T11:35:38.135Z,24.25
2022-07-29T11:38:27.699Z,24.45
2022-07-29T11:41:31.854Z,24.74
2022-07-29T11:44:00.771Z,24.42
2022-07-29T11:46:54.059Z,24.26
2022-07-29T11:49:31.943Z,24.28
2022-07-29T11:52:02.599Z,24.13
2022-07-29T11:54:38.824Z,24.20
2022-07-29T11:57:21.905Z,24.32
2022-07-29T11:59:48.990Z,24.25
2022-07-29T12:07:49.898Z,24.63
2022-07-29T12:10:19.801Z,24.66
2022-07-29T12:12:56.515Z,24.55
2022-07-29T12:15:24.934Z,24.60
2022-07-29T12:20:45.898Z,24.75
2022-07-29T12:23:13.544Z,24.95
2022-07-29T12:25:44.509Z,24.86
2022-07-29T12:28:18.587Z,24.88
2022-07-29T12:30:53.702Z,24.98
2022-07-29T12:33:23.269Z,24.91
2022-07-29T12:36:07.063Z,24.83
2022-07-29T12:38:35.956Z,25.08
2022-07-29T12:41:04.528Z,25.38
2022-07-29T12:43:31.541Z,25.39
2022-07-29T12:45:58.594Z,26.00
2022-07-29T12:48:39.399Z,25.82
2022-07-29T12:51:08.576Z,26.04
2022-07-29T12:53:36.232Z,26.19
2022-07-29T12:56:15.610Z,25.77
2022-07-29T12:58:51.143Z,25.64
2022-07-29T13:01:20.488Z,25.71
2022-07-29T13:03:57.485Z,25.72
2022-07-29T13:06:39.603Z,25.85
2022-07-29T13:09:14.595Z,25.75
2022-07-29T13:11:58.676Z,25.79
2022-07-29T13:14:33.712Z,25.93
2022-07-29T13:17:09.052Z,26.06
2022-07-29T13:19:38.362Z,25.66
2022-07-29T13:22:05.579Z,25.75
2022-07-29T13:24:32.020Z,26.25
2022-07-29T13:26:58.545Z,25.92
2022-07-29T13:29:26.574Z,26.03
2022-07-29T13:31:57.016Z,25.79
2022-07-29T13:34:25.283Z,25.49
2022-07-29T13:36:51.952Z,25.73
2022-07-29T13:39:18.349Z,25.81
2022-07-29T13:41:44.804Z,25.82
2022-07-29T13:44:12.015Z,25.84
2022-07-29T13:46:40.066Z,25.88
2022-07-29T13:49:06.685Z,26.49
2022-07-29T13:51:33.364Z,26.56
2022-07-29T13:53:59.775Z,26.87
2022-07-29T13:56:26.222Z,26.99
2022-07-29T13:58:52.600Z,26.66
2022-07-29T14:01:19.244Z,26.68
2022-07-29T14:03:45.967Z,26.48
2022-07-29T14:06:12.360Z,26.72
2022-07-29T14:08:38.799Z,26.86
2022-07-29T14:11:05.300Z,26.54
2022-07-29T14:13:32.367Z,26.78
2022-07-29T14:15:58.818Z,27.15
2022-07-29T14:18:25.484Z,27.14
2022-07-29T14:20:52.070Z,26.91
2022-07-29T14:23:26.140Z,27.02
2022-07-29T14:25:53.251Z,27.73
2022-07-29T14:28:19.990Z,27.80
2022-07-29T14:30:46.671Z,27.67
2022-07-29T14:33:13.482Z,27.45
2022-07-29T14:35:40.099Z,27.72
2022-07-29T14:38:06.467Z,27.64
2022-07-29T14:40:32.941Z,27.55
2022-07-29T14:42:59.344Z,27.17
2022-07-29T14:45:25.787Z,27.23
2022-07-29T14:47:57.167Z,26.72
2022-07-29T14:50:31.396Z,26.38
2022-07-29T14:52:59.011Z,26.85
2022-07-29T14:55:25.487Z,26.94
2022-07-29T14:57:53.386Z,26.55
2022-07-29T15:00:22.175Z,26.51
2022-07-29T15:03:04.495Z,27.02
2022-07-29T15:05:31.402Z,27.00
2022-07-29T15:07:58.483Z,26.92
2022-07-29T15:10:25.219Z,26.48
2022-07-29T15:12:54.288Z,26.74
2022-07-29T15:15:20.703Z,27.45
2022-07-29T15:17:47.777Z,27.89
2022-07-29T15:20:14.572Z,27.94
2022-07-29T15:22:43.107Z,27.43
2022-07-29T15:25:10.598Z,27.18
2022-07-29T15:27:37.168Z,27.59
2022-07-29T15:30:04.046Z,27.64
2022-07-29T15:32:30.619Z,27.95
2022-07-29T15:34:56.994Z,28.01
2022-07-29T15:37:23.599Z,28.22
2022-07-29T15:39:50.339Z,28.62
2022-07-29T15:42:17.819Z,28.67
2022-07-29T15:44:44.332Z,28.90
2022-07-29T15:47:10.813Z,28.79
2022-07-29T15:49:47.081Z,28.70
2022-07-29T15:52:25.517Z,28.57
2022-07-29T15:54:56.530Z,28.26
2022-07-29T15:57:24.490Z,28.20
2022-07-29T15:59:51.857Z,28.74
2022-07-29T16:02:18.294Z,29.16
2022-07-29T16:04:44.795Z,28.74
2022-07-29T16:07:11.207Z,28.77
2022-07-29T16:09:37.806Z,28.63
2022-07-29T16:12:14.959Z,27.98
2022-07-29T16:14:42.845Z,28.13
2022-07-29T16:17:09.507Z,28.18
2022-07-29T16:19:41.074Z,28.22
2022-07-29T16:22:07.435Z,27.57
2022-07-29T16:24:33.855Z,26.85
2022-07-29T16:27:00.693Z,26.99
2022-07-29T16:29:27.384Z,27.19
2022-07-29T16:31:53.818Z,27.41
2022-07-29T16:34:20.435Z,27.34
2022-07-29T16:36:47.994Z,27.20
2022-07-29T16:39:14.527Z,27.14
2022-07-29T16:41:40.997Z,26.73
2022-07-29T16:44:07.439Z,26.49
2022-07-29T16:46:37.206Z,26.70
2022-07-29T16:49:05.493Z,26.60
2022-07-29T16:51:40.329Z,26.82
2022-07-29T16:54:08.592Z,26.54
2022-07-29T16:56:35.029Z,26.94
2022-07-29T16:59:01.703Z,27.10
2022-07-29T17:01:28.345Z,27.22
2022-07-29T17:04:06.622Z,27.23
2022-07-29T17:06:35.109Z,27.45
2022-07-29T17:09:03.440Z,27.08
2022-07-29T17:11:52.554Z,26.87
2022-07-29T17:14:16.623Z,26.59
2022-07-29T17:16:58.920Z,26.20
2022-07-29T17:19:29.095Z,26.13
2022-07-29T17:22:02.326Z,26.36
2022-07-29T17:24:33.682Z,26.58
2022-07-29T17:27:00.597Z,26.57
2022-07-29T17:29:28.452Z,26.39
2022-07-29T17:31:55.018Z,26.22
2022-07-29T17:34:21.438Z,26.15
2022-07-29T17:36:48.214Z,25.90
2022-07-29T17:39:14.688Z,25.59
2022-07-29T17:41:41.204Z,25.24
2022-07-29T17:44:09.289Z,25.27
2022-07-29T17:46:36.049Z,25.13
2022-07-29T17:49:02.706Z,25.20
2022-07-29T17:51:29.536Z,25.28
2022-07-29T17:54:02.097Z,25.19
2022-07-29T17:56:28.683Z,25.05
2022-07-29T17:58:55.169Z,24.94
2022-07-29T18:01:23.383Z,24.71
2022-07-29T18:03:50.156Z,24.65
2022-07-29T18:06:16.572Z,24.68
2022-07-29T18:08:43.238Z,24.50
2022-07-29T18:11:09.656Z,24.40
2022-07-29T18:13:42.046Z,24.39
2022-07-29T18:16:09.359Z,24.13
2022-07-29T18:18:35.897Z,23.99
2022-07-29T18:21:02.732Z,23.87
2022-07-29T18:23:29.318Z,23.70
2022-07-29T18:25:55.754Z,23.48
2022-07-29T18:28:22.429Z,23.30
2022-07-29T18:30:48.876Z,23.25
2022-07-29T18:33:21.748Z,23.24
2022-07-29T18:35:50.409Z,23.16
2022-07-29T18:38:17.205Z,22.99
2022-07-29T18:40:49.184Z,22.79
2022-07-29T18:43:15.609Z,22.75
2022-07-29T18:45:42.422Z,22.66
2022-07-29T18:48:12.923Z,22.38
2022-07-29T18:50:40.215Z,22.37
2022-07-29T18:53:13.121Z,22.34
2022-07-29T18:55:39.633Z,22.16
2022-07-29T18:58:06.999Z,22.13
2022-07-29T19:00:33.459Z,22.15
2022-07-29T19:02:59.922Z,22.05
2022-07-29T19:05:26.490Z,21.88
2022-07-29T19:07:54.708Z,21.67
2022-07-29T19:10:21.304Z,21.46
2022-07-29T19:12:47.761Z,21.40
2022-07-29T19:15:20.334Z,21.35
2022-07-29T19:17:47.949Z,21.23
2022-07-29T19:20:15.522Z,21.12
2022-07-29T19:22:42.115Z,20.94
2022-07-29T19:25:09.837Z,20.84
2022-07-29T19:27:36.273Z,20.75
2022-07-29T19:30:04.915Z,20.73
2022-07-29T19:32:31.305Z,20.59
2022-07-29T19:35:23.795Z,20.60
2022-07-29T19:37:51.438Z,20.62
2022-07-29T19:40:18.108Z,20.55
2022-07-29T19:42:44.738Z,20.52
2022-07-29T19:45:11.568Z,20.44
2022-07-29T19:47:38.025Z,20.39
2022-07-29T19:50:04.810Z,20.30
2022-07-29T19:52:31.204Z,20.20
2022-07-29T19:54:57.643Z,20.09
2022-07-29T19:57:30.028Z,19.98
2022-07-29T20:00:08.495Z,19.90
2022-07-29T20:02:39.283Z,19.78
2022-07-29T20:05:06.624Z,19.69
2022-07-29T20:07:34.431Z,19.67
2022-07-29T20:10:00.875Z,19.64
2022-07-29T20:12:27.969Z,19.62
2022-07-29T20:14:54.375Z,19.57
2022-07-29T20:17:22.354Z,19.53
2022-07-29T20:19:49.767Z,19.46
2022-07-29T20:22:22.680Z,19.39
2022-07-29T20:24:49.094Z,19.34
2022-07-29T20:27:15.555Z,19.28
2022-07-29T20:29:41.946Z,19.21
2022-07-29T20:32:08.434Z,19.15
2022-07-29T20:34:34.868Z,19.12
2022-07-29T20:37:02.657Z,19.05
2022-07-29T20:39:29.457Z,19.02
2022-07-29T20:41:56.199Z,18.97
2022-07-29T20:44:24.183Z,18.96
2022-07-29T20:46:50.663Z,18.93
2022-07-29T20:49:17.190Z,18.91
2022-07-29T20:51:44.144Z,18.87
2022-07-29T20:54:11.200Z,18.75
2022-07-29T20:56:38.111Z,18.58
2022-07-29T20:59:04.502Z,18.48
2022-07-29T21:01:31.013Z,18.43
2022-07-29T21:03:57.461Z,18.41
2022-07-29T21:06:23.872Z,18.43
2022-07-29T21:08:50.307Z,18.41
2022-07-29T21:11:16.671Z,18.39
2022-07-29T21:13:45.375Z,18.30
2022-07-29T21:16:17.887Z,18.20
2022-07-29T21:18:48.523Z,18.17
2022-07-29T21:21:16.373Z,18.16
2022-07-29T21:23:44.178Z,18.17
2022-07-29T21:26:17.287Z,18.16
2022-07-29T21:28:43.912Z,18.13
2022-07-29T21:31:13.031Z,18.09
2022-07-29T21:33:45.196Z,18.05
2022-07-29T21:36:47.802Z,17.98
2022-07-29T21:38:59.753Z,17.88
2022-07-29T21:41:26.652Z,17.79
2022-07-29T21:43:54.642Z,17.64
2022-07-29T21:46:24.789Z,17.63
2022-07-29T21:48:51.375Z,17.63
2022-07-29T21:51:17.834Z,17.62
2022-07-29T21:53:44.274Z,17.59
2022-07-29T21:56:14.440Z,17.54
2022-07-29T21:58:41.591Z,17.53
2022-07-29T22:01:08.040Z,17.53
2022-07-29T22:03:34.472Z,17.49
2022-07-29T22:06:01.036Z,17.38
2022-07-29T22:08:31.152Z,17.25
2022-07-29T22:10:57.531Z,17.21
2022-07-29T22:13:23.903Z,17.22
2022-07-29T22:15:50.283Z,17.22
2022-07-29T22:18:20.598Z,17.21
2022-07-29T22:20:51.063Z,17.16
2022-07-29T22:23:17.470Z,17.17
2022-07-29T22:25:43.855Z,17.14
2022-07-29T22:28:10.218Z,17.13
2022-07-29T22:30:36.711Z,17.11
2022-07-29T22:33:03.264Z,17.12
2022-07-29T22:35:29.666Z,17.10
2022-07-29T22:37:56.272Z,17.05
2022-07-29T22:40:22.696Z,17.02
2022-07-29T22:42:57.440Z,17.02
2022-07-29T22:45:23.950Z,16.98
2022-07-29T22:47:57.452Z,16.99
2022-07-29T22:50:26.376Z,16.96
2022-07-29T22:52:52.755Z,16.94
2022-07-29T22:55:19.267Z,16.89
2022-07-29T22:57:45.702Z,16.87
2022-07-29T23:00:13.554Z,16.82
2022-07-29T23:02:41.276Z,16.76
2022-07-29T23:05:08.933Z,16.73
2022-07-29T23:07:35.490Z,16.70
2022-07-29T23:10:02.895Z,16.67
2022-07-29T23:12:29.512Z,16.62
2022-07-29T23:14:55.958Z,16.60
2022-07-29T23:17:22.379Z,16.61
2022-07-29T23:19:48.852Z,16.59
2022-07-29T23:22:15.248Z,16.57
2022-07-29T23:24:45.023Z,16.55
2022-07-29T23:27:11.423Z,16.53
2022-07-29T23:29:38.015Z,16.48
2022-07-29T23:32:04.793Z,16.45
2022-07-29T23:34:31.393Z,16.42
2022-07-29T23:36:58.225Z,16.37
2022-07-29T23:39:24.918Z,16.35
2022-07-29T23:41:51.314Z,16.34
2022-07-29T23:44:17.716Z,16.27
2022-07-29T23:46:44.175Z,16.28
2022-07-29T23:49:11.101Z,16.27
2022-07-29T23:51:37.740Z,16.24
2022-07-29T23:54:04.283Z,16.23
2022-07-29T23:56:30.671Z,16.21
2022-07-29T23:58:57.137Z,16.20
